sensor_id;sensor_type;location;lat;lon;timestamp;temperature;humidity
66710;DHT22;53624;0.000;0.000;2023-06-14T00:00:37;23.30;99.90
66710;DHT22;53624;0.000;0.000;2023-06-14T00:03:08;23.30;99.90
66710;DHT22;53624;0.000;0.000;2023-06-14T00:05:36;23.20;99.90
66710;DHT22;53624;0.000;0.000;2023-06-14T00:08:06;23.20;99.90
66710;DHT22;53624;0.000;0.000;2023-06-14T00:10:34;23.20;99.90
66710;DHT22;53624;0.000;0.000;2023-06-14T00:13:01;23.20;99.90
66710;DHT22;53624;0.000;0.000;2023-06-14T00:15:30;23.20;99.90
66710;DHT22;53624;0.000;0.000;2023-06-14T00:17:59;23.20;99.90
66710;DHT22;53624;0.000;0.000;2023-06-14T00:20:27;23.20;99.90
66710;DHT22;53624;0.000;0.000;2023-06-14T00:22:54;23.20;99.90
66710;DHT22;53624;0.000;0.000;2023-06-14T00:25:22;23.20;99.90
66710;DHT22;53624;0.000;0.000;2023-06-14T00:27:51;23.20;99.90
66710;DHT22;53624;0.000;0.000;2023-06-14T00:30:18;23.10;99.90
66710;DHT22;53624;0.000;0.000;2023-06-14T00:32:46;23.10;99.90
66710;DHT22;53624;0.000;0.000;2023-06-14T00:35:15;23.10;99.90
66710;DHT22;53624;0.000;0.000;2023-06-14T00:37:42;23.10;99.90
66710;DHT22;53624;0.000;0.000;2023-06-14T00:40:10;23.10;99.90
66710;DHT22;53624;0.000;0.000;2023-06-14T00:42:37;23.10;99.90
66710;DHT22;53624;0.000;0.000;2023-06-14T00:45:05;23.10;99.90
66710;DHT22;53624;0.000;0.000;2023-06-14T00:47:33;23.10;99.90
66710;DHT22;53624;0.000;0.000;2023-06-14T00:50:01;23.10;99.90
66710;DHT22;53624;0.000;0.000;2023-06-14T00:52:30;23.10;99.90
66710;DHT22;53624;0.000;0.000;2023-06-14T00:54:58;23.00;99.90
66710;DHT22;53624;0.000;0.000;2023-06-14T00:57:25;23.00;99.90
66710;DHT22;53624;0.000;0.000;2023-06-14T00:59:53;23.00;99.90
66710;DHT22;53624;0.000;0.000;2023-06-14T01:02:21;23.00;99.90
66710;DHT22;53624;0.000;0.000;2023-06-14T01:04:50;23.00;99.90
66710;DHT22;53624;0.000;0.000;2023-06-14T01:07:20;23.00;99.90
66710;DHT22;53624;0.000;0.000;2023-06-14T01:09:56;23.00;99.90
66710;DHT22;53624;0.000;0.000;2023-06-14T01:12:28;23.00;99.90
66710;DHT22;53624;0.000;0.000;2023-06-14T01:14:59;23.00;99.90
66710;DHT22;53624;0.000;0.000;2023-06-14T01:17:28;23.00;99.90
66710;DHT22;53624;0.000;0.000;2023-06-14T01:19:57;23.00;99.90
66710;DHT22;53624;0.000;0.000;2023-06-14T01:22:25;22.90;99.90
66710;DHT22;53624;0.000;0.000;2023-06-14T01:24:56;22.90;99.90
66710;DHT22;53624;0.000;0.000;2023-06-14T01:27:24;22.90;99.90
66710;DHT22;53624;0.000;0.000;2023-06-14T01:29:54;22.90;99.90
66710;DHT22;53624;0.000;0.000;2023-06-14T01:32:23;22.90;99.90
66710;DHT22;53624;0.000;0.000;2023-06-14T01:34:51;22.90;99.90
66710;DHT22;53624;0.000;0.000;2023-06-14T01:37:19;22.90;99.90
66710;DHT22;53624;0.000;0.000;2023-06-14T01:39:47;22.80;99.90
66710;DHT22;53624;0.000;0.000;2023-06-14T01:42:20;22.80;99.90
66710;DHT22;53624;0.000;0.000;2023-06-14T01:44:47;22.90;99.90
66710;DHT22;53624;0.000;0.000;2023-06-14T01:47:15;22.80;99.90
66710;DHT22;53624;0.000;0.000;2023-06-14T01:49:43;22.80;99.90
66710;DHT22;53624;0.000;0.000;2023-06-14T01:52:10;22.80;99.90
66710;DHT22;53624;0.000;0.000;2023-06-14T01:54:38;22.80;99.90
66710;DHT22;53624;0.000;0.000;2023-06-14T01:57:08;22.80;99.90
66710;DHT22;53624;0.000;0.000;2023-06-14T01:59:38;22.80;99.90
66710;DHT22;53624;0.000;0.000;2023-06-14T02:02:06;22.80;99.90
66710;DHT22;53624;0.000;0.000;2023-06-14T02:04:33;22.80;99.90
66710;DHT22;53624;0.000;0.000;2023-06-14T02:07:01;22.70;99.90
66710;DHT22;53624;0.000;0.000;2023-06-14T02:09:28;22.70;99.90
66710;DHT22;53624;0.000;0.000;2023-06-14T02:11:55;22.70;99.90
66710;DHT22;53624;0.000;0.000;2023-06-14T02:14:24;22.70;99.90
66710;DHT22;53624;0.000;0.000;2023-06-14T02:16:53;22.70;99.90
66710;DHT22;53624;0.000;0.000;2023-06-14T02:19:21;22.70;99.90
66710;DHT22;53624;0.000;0.000;2023-06-14T02:21:48;22.70;99.90
66710;DHT22;53624;0.000;0.000;2023-06-14T02:24:16;22.70;99.90
66710;DHT22;53624;0.000;0.000;2023-06-14T02:26:43;22.70;99.90
66710;DHT22;53624;0.000;0.000;2023-06-14T02:29:14;22.70;99.90
66710;DHT22;53624;0.000;0.000;2023-06-14T02:31:42;22.70;99.90
66710;DHT22;53624;0.000;0.000;2023-06-14T02:34:11;22.60;99.90
66710;DHT22;53624;0.000;0.000;2023-06-14T02:36:39;22.60;99.90
66710;DHT22;53624;0.000;0.000;2023-06-14T02:39:07;22.60;99.90
66710;DHT22;53624;0.000;0.000;2023-06-14T02:41:35;22.60;99.90
66710;DHT22;53624;0.000;0.000;2023-06-14T02:44:04;22.60;99.90
66710;DHT22;53624;0.000;0.000;2023-06-14T02:46:31;22.60;99.90
66710;DHT22;53624;0.000;0.000;2023-06-14T02:48:59;22.60;99.90
66710;DHT22;53624;0.000;0.000;2023-06-14T02:51:28;22.60;99.90
66710;DHT22;53624;0.000;0.000;2023-06-14T02:53:55;22.60;99.90
66710;DHT22;53624;0.000;0.000;2023-06-14T02:56:23;22.60;99.90
66710;DHT22;53624;0.000;0.000;2023-06-14T02:58:52;22.60;99.90
66710;DHT22;53624;0.000;0.000;2023-06-14T03:01:20;22.50;99.90
66710;DHT22;53624;0.000;0.000;2023-06-14T03:03:47;22.50;99.90
66710;DHT22;53624;0.000;0.000;2023-06-14T03:06:15;22.50;99.90
66710;DHT22;53624;0.000;0.000;2023-06-14T03:08:46;22.50;99.90
66710;DHT22;53624;0.000;0.000;2023-06-14T03:11:15;22.50;99.90
66710;DHT22;53624;0.000;0.000;2023-06-14T03:13:47;22.50;99.90
66710;DHT22;53624;0.000;0.000;2023-06-14T03:16:17;22.50;99.90
66710;DHT22;53624;0.000;0.000;2023-06-14T03:18:45;22.50;99.90
66710;DHT22;53624;0.000;0.000;2023-06-14T03:21:13;22.50;99.90
66710;DHT22;53624;0.000;0.000;2023-06-14T03:23:43;22.50;99.90
66710;DHT22;53624;0.000;0.000;2023-06-14T03:26:12;22.50;99.90
66710;DHT22;53624;0.000;0.000;2023-06-14T03:28:41;22.50;99.90
66710;DHT22;53624;0.000;0.000;2023-06-14T03:31:08;22.50;99.90
66710;DHT22;53624;0.000;0.000;2023-06-14T03:33:36;22.50;99.90
66710;DHT22;53624;0.000;0.000;2023-06-14T03:36:03;22.40;99.90
66710;DHT22;53624;0.000;0.000;2023-06-14T03:38:32;22.40;99.90
66710;DHT22;53624;0.000;0.000;2023-06-14T03:40:59;22.40;99.90
66710;DHT22;53624;0.000;0.000;2023-06-14T03:43:28;22.40;99.90
66710;DHT22;53624;0.000;0.000;2023-06-14T03:45:56;22.40;99.90
66710;DHT22;53624;0.000;0.000;2023-06-14T03:48:25;22.40;99.90
66710;DHT22;53624;0.000;0.000;2023-06-14T03:50:53;22.40;99.90
66710;DHT22;53624;0.000;0.000;2023-06-14T03:53:21;22.40;99.90
66710;DHT22;53624;0.000;0.000;2023-06-14T03:55:50;22.40;99.90
66710;DHT22;53624;0.000;0.000;2023-06-14T03:58:21;22.40;99.90
66710;DHT22;53624;0.000;0.000;2023-06-14T04:00:51;22.40;99.90
66710;DHT22;53624;0.000;0.000;2023-06-14T04:03:18;22.40;99.90
66710;DHT22;53624;0.000;0.000;2023-06-14T04:05:54;22.40;99.90
66710;DHT22;53624;0.000;0.000;2023-06-14T04:08:25;22.40;99.90
66710;DHT22;53624;0.000;0.000;2023-06-14T04:10:53;22.40;99.90
66710;DHT22;53624;0.000;0.000;2023-06-14T04:13:21;22.40;99.90
66710;DHT22;53624;0.000;0.000;2023-06-14T04:15:48;22.40;99.90
66710;DHT22;53624;0.000;0.000;2023-06-14T04:18:24;22.40;99.90
66710;DHT22;53624;0.000;0.000;2023-06-14T04:20:51;22.30;99.90
66710;DHT22;53624;0.000;0.000;2023-06-14T04:23:19;22.30;99.90
66710;DHT22;53624;0.000;0.000;2023-06-14T04:25:48;22.30;99.90
66710;DHT22;53624;0.000;0.000;2023-06-14T04:28:16;22.30;99.90
66710;DHT22;53624;0.000;0.000;2023-06-14T04:30:45;22.30;99.90
66710;DHT22;53624;0.000;0.000;2023-06-14T04:33:16;22.30;99.90
66710;DHT22;53624;0.000;0.000;2023-06-14T04:35:45;22.30;99.90
66710;DHT22;53624;0.000;0.000;2023-06-14T04:38:15;22.30;99.90
66710;DHT22;53624;0.000;0.000;2023-06-14T04:40:43;22.30;99.90
66710;DHT22;53624;0.000;0.000;2023-06-14T04:43:15;22.30;99.90
66710;DHT22;53624;0.000;0.000;2023-06-14T04:45:45;22.30;99.90
66710;DHT22;53624;0.000;0.000;2023-06-14T04:48:13;22.30;99.90
66710;DHT22;53624;0.000;0.000;2023-06-14T04:50:41;22.30;99.90
66710;DHT22;53624;0.000;0.000;2023-06-14T04:53:11;22.30;99.90
66710;DHT22;53624;0.000;0.000;2023-06-14T04:55:39;22.30;99.90
66710;DHT22;53624;0.000;0.000;2023-06-14T04:58:11;22.30;99.90
66710;DHT22;53624;0.000;0.000;2023-06-14T05:00:39;22.30;99.90
66710;DHT22;53624;0.000;0.000;2023-06-14T05:03:08;22.30;99.90
66710;DHT22;53624;0.000;0.000;2023-06-14T05:05:40;22.30;99.90
66710;DHT22;53624;0.000;0.000;2023-06-14T05:08:07;22.30;99.90
66710;DHT22;53624;0.000;0.000;2023-06-14T05:10:37;22.30;99.90
66710;DHT22;53624;0.000;0.000;2023-06-14T05:13:05;22.30;99.90
66710;DHT22;53624;0.000;0.000;2023-06-14T05:15:32;22.30;99.90
66710;DHT22;53624;0.000;0.000;2023-06-14T05:18:00;22.30;99.90
66710;DHT22;53624;0.000;0.000;2023-06-14T05:20:28;22.30;99.90
66710;DHT22;53624;0.000;0.000;2023-06-14T05:22:56;22.30;99.90
66710;DHT22;53624;0.000;0.000;2023-06-14T05:25:24;22.30;99.90
66710;DHT22;53624;0.000;0.000;2023-06-14T05:27:52;22.30;99.90
66710;DHT22;53624;0.000;0.000;2023-06-14T05:30:20;22.30;99.90
66710;DHT22;53624;0.000;0.000;2023-06-14T05:32:48;22.30;99.90
66710;DHT22;53624;0.000;0.000;2023-06-14T05:35:16;22.30;99.90
66710;DHT22;53624;0.000;0.000;2023-06-14T05:37:43;22.30;99.90
66710;DHT22;53624;0.000;0.000;2023-06-14T05:40:11;22.30;99.90
66710;DHT22;53624;0.000;0.000;2023-06-14T05:42:38;22.30;99.90
66710;DHT22;53624;0.000;0.000;2023-06-14T05:45:08;22.30;99.90
66710;DHT22;53624;0.000;0.000;2023-06-14T05:47:35;22.30;99.90
66710;DHT22;53624;0.000;0.000;2023-06-14T05:50:03;22.30;99.90
66710;DHT22;53624;0.000;0.000;2023-06-14T05:52:31;22.30;99.90
66710;DHT22;53624;0.000;0.000;2023-06-14T05:54:58;22.00;99.90
66710;DHT22;53624;0.000;0.000;2023-06-14T05:57:26;21.40;99.90
66710;DHT22;53624;0.000;0.000;2023-06-14T05:59:54;20.80;99.90
66710;DHT22;53624;0.000;0.000;2023-06-14T06:02:23;20.40;99.90
66710;DHT22;53624;0.000;0.000;2023-06-14T06:04:50;20.20;99.90
66710;DHT22;53624;0.000;0.000;2023-06-14T06:07:17;20.30;99.90
66710;DHT22;53624;0.000;0.000;2023-06-14T06:09:45;20.60;99.90
66710;DHT22;53624;0.000;0.000;2023-06-14T06:12:12;20.70;99.90
66710;DHT22;53624;0.000;0.000;2023-06-14T06:14:40;20.80;99.90
66710;DHT22;53624;0.000;0.000;2023-06-14T06:17:07;20.80;99.90
66710;DHT22;53624;0.000;0.000;2023-06-14T06:19:36;20.70;99.90
66710;DHT22;53624;0.000;0.000;2023-06-14T06:22:04;20.70;99.90
66710;DHT22;53624;0.000;0.000;2023-06-14T06:24:32;20.80;99.90
66710;DHT22;53624;0.000;0.000;2023-06-14T06:26:59;20.80;99.90
66710;DHT22;53624;0.000;0.000;2023-06-14T06:29:28;20.70;99.90
66710;DHT22;53624;0.000;0.000;2023-06-14T06:31:55;20.80;99.90
66710;DHT22;53624;0.000;0.000;2023-06-14T06:34:23;21.00;99.90
66710;DHT22;53624;0.000;0.000;2023-06-14T06:36:52;20.90;99.90
66710;DHT22;53624;0.000;0.000;2023-06-14T06:39:19;21.00;99.90
66710;DHT22;53624;0.000;0.000;2023-06-14T06:41:47;21.10;99.90
66710;DHT22;53624;0.000;0.000;2023-06-14T06:44:18;21.40;99.90
66710;DHT22;53624;0.000;0.000;2023-06-14T06:46:49;21.40;99.90
66710;DHT22;53624;0.000;0.000;2023-06-14T06:49:16;21.10;99.90
66710;DHT22;53624;0.000;0.000;2023-06-14T06:51:53;21.30;99.90
66710;DHT22;53624;0.000;0.000;2023-06-14T06:54:27;21.80;99.90
66710;DHT22;53624;0.000;0.000;2023-06-14T06:56:55;21.80;99.90
66710;DHT22;53624;0.000;0.000;2023-06-14T06:59:22;22.10;99.90
66710;DHT22;53624;0.000;0.000;2023-06-14T07:01:50;22.50;99.90
66710;DHT22;53624;0.000;0.000;2023-06-14T07:04:17;23.00;99.90
66710;DHT22;53624;0.000;0.000;2023-06-14T07:06:45;23.20;99.90
66710;DHT22;53624;0.000;0.000;2023-06-14T07:09:13;23.30;99.90
66710;DHT22;53624;0.000;0.000;2023-06-14T07:11:43;23.30;99.90
66710;DHT22;53624;0.000;0.000;2023-06-14T07:14:11;23.20;99.90
66710;DHT22;53624;0.000;0.000;2023-06-14T07:16:38;22.90;99.90
66710;DHT22;53624;0.000;0.000;2023-06-14T07:19:07;22.70;99.90
66710;DHT22;53624;0.000;0.000;2023-06-14T07:21:35;22.70;99.90
66710;DHT22;53624;0.000;0.000;2023-06-14T07:24:04;22.50;99.90
66710;DHT22;53624;0.000;0.000;2023-06-14T07:26:32;22.00;99.90
66710;DHT22;53624;0.000;0.000;2023-06-14T07:29:01;21.80;99.90
66710;DHT22;53624;0.000;0.000;2023-06-14T07:31:28;21.70;99.90
66710;DHT22;53624;0.000;0.000;2023-06-14T07:33:56;22.00;99.90
66710;DHT22;53624;0.000;0.000;2023-06-14T07:36:23;22.10;99.90
66710;DHT22;53624;0.000;0.000;2023-06-14T07:38:51;22.30;99.90
66710;DHT22;53624;0.000;0.000;2023-06-14T07:41:18;22.60;99.90
66710;DHT22;53624;0.000;0.000;2023-06-14T07:43:46;23.00;99.90
66710;DHT22;53624;0.000;0.000;2023-06-14T07:46:15;22.80;99.90
66710;DHT22;53624;0.000;0.000;2023-06-14T07:48:42;22.80;99.90
66710;DHT22;53624;0.000;0.000;2023-06-14T07:51:10;23.00;99.90
66710;DHT22;53624;0.000;0.000;2023-06-14T07:53:41;23.10;99.90
66710;DHT22;53624;0.000;0.000;2023-06-14T07:56:22;22.70;99.90
66710;DHT22;53624;0.000;0.000;2023-06-14T07:58:50;22.80;99.90
66710;DHT22;53624;0.000;0.000;2023-06-14T08:01:18;22.90;99.90
66710;DHT22;53624;0.000;0.000;2023-06-14T08:03:46;22.90;99.90
66710;DHT22;53624;0.000;0.000;2023-06-14T08:06:13;23.10;99.90
66710;DHT22;53624;0.000;0.000;2023-06-14T08:08:41;23.10;99.90
66710;DHT22;53624;0.000;0.000;2023-06-14T08:11:08;23.30;99.90
66710;DHT22;53624;0.000;0.000;2023-06-14T08:13:36;23.40;99.90
66710;DHT22;53624;0.000;0.000;2023-06-14T08:16:04;23.60;99.90
66710;DHT22;53624;0.000;0.000;2023-06-14T08:18:33;23.60;99.90
66710;DHT22;53624;0.000;0.000;2023-06-14T08:21:00;23.40;99.90
66710;DHT22;53624;0.000;0.000;2023-06-14T08:23:29;23.40;99.90
66710;DHT22;53624;0.000;0.000;2023-06-14T08:25:56;23.50;99.90
66710;DHT22;53624;0.000;0.000;2023-06-14T08:28:24;23.50;99.90
66710;DHT22;53624;0.000;0.000;2023-06-14T08:30:51;23.50;99.90
66710;DHT22;53624;0.000;0.000;2023-06-14T08:33:19;23.80;99.90
66710;DHT22;53624;0.000;0.000;2023-06-14T08:35:47;24.30;99.90
66710;DHT22;53624;0.000;0.000;2023-06-14T08:38:15;24.80;99.90
66710;DHT22;53624;0.000;0.000;2023-06-14T08:40:42;24.30;99.90
66710;DHT22;53624;0.000;0.000;2023-06-14T08:43:10;24.60;99.90
66710;DHT22;53624;0.000;0.000;2023-06-14T08:45:37;25.10;99.90
66710;DHT22;53624;0.000;0.000;2023-06-14T08:48:08;25.20;99.90
66710;DHT22;53624;0.000;0.000;2023-06-14T08:50:35;25.40;99.90
66710;DHT22;53624;0.000;0.000;2023-06-14T08:53:05;25.50;99.90
66710;DHT22;53624;0.000;0.000;2023-06-14T08:55:36;25.80;99.90
66710;DHT22;53624;0.000;0.000;2023-06-14T08:58:05;25.90;99.80
66710;DHT22;53624;0.000;0.000;2023-06-14T09:00:35;26.10;99.90
66710;DHT22;53624;0.000;0.000;2023-06-14T09:03:04;26.30;99.90
66710;DHT22;53624;0.000;0.000;2023-06-14T09:05:39;26.10;99.00
66710;DHT22;53624;0.000;0.000;2023-06-14T09:08:08;26.10;98.70
66710;DHT22;53624;0.000;0.000;2023-06-14T09:10:36;26.30;99.00
66710;DHT22;53624;0.000;0.000;2023-06-14T09:13:04;26.40;96.80
66710;DHT22;53624;0.000;0.000;2023-06-14T09:15:31;26.50;99.00
66710;DHT22;53624;0.000;0.000;2023-06-14T09:18:00;25.80;97.40
66710;DHT22;53624;0.000;0.000;2023-06-14T09:20:29;25.20;98.80
66710;DHT22;53624;0.000;0.000;2023-06-14T09:22:56;25.60;99.90
66710;DHT22;53624;0.000;0.000;2023-06-14T09:25:26;25.70;99.60
66710;DHT22;53624;0.000;0.000;2023-06-14T09:27:53;25.70;99.90
66710;DHT22;53624;0.000;0.000;2023-06-14T09:30:21;25.90;98.90
66710;DHT22;53624;0.000;0.000;2023-06-14T09:32:49;26.10;99.60
66710;DHT22;53624;0.000;0.000;2023-06-14T09:35:17;26.20;98.50
66710;DHT22;53624;0.000;0.000;2023-06-14T09:37:47;26.50;99.90
66710;DHT22;53624;0.000;0.000;2023-06-14T09:40:20;26.40;97.90
66710;DHT22;53624;0.000;0.000;2023-06-14T09:42:49;26.70;98.70
66710;DHT22;53624;0.000;0.000;2023-06-14T09:45:16;26.80;96.80
66710;DHT22;53624;0.000;0.000;2023-06-14T09:47:48;26.80;96.80
66710;DHT22;53624;0.000;0.000;2023-06-14T09:50:16;27.00;96.80
66710;DHT22;53624;0.000;0.000;2023-06-14T09:52:43;26.90;97.00
66710;DHT22;53624;0.000;0.000;2023-06-14T09:55:12;27.10;96.80
66710;DHT22;53624;0.000;0.000;2023-06-14T09:57:40;27.00;96.70
66710;DHT22;53624;0.000;0.000;2023-06-14T10:00:10;27.00;97.80
66710;DHT22;53624;0.000;0.000;2023-06-14T10:02:38;26.80;98.30
66710;DHT22;53624;0.000;0.000;2023-06-14T10:05:08;26.40;98.10
66710;DHT22;53624;0.000;0.000;2023-06-14T10:07:38;26.20;97.50
66710;DHT22;53624;0.000;0.000;2023-06-14T10:10:07;26.60;97.60
66710;DHT22;53624;0.000;0.000;2023-06-14T10:12:35;26.80;96.90
66710;DHT22;53624;0.000;0.000;2023-06-14T10:15:03;26.70;97.20
66710;DHT22;53624;0.000;0.000;2023-06-14T10:17:35;26.40;96.90
66710;DHT22;53624;0.000;0.000;2023-06-14T10:20:16;25.80;98.50
66710;DHT22;53624;0.000;0.000;2023-06-14T10:22:47;25.60;96.80
66710;DHT22;53624;0.000;0.000;2023-06-14T10:25:25;25.50;97.50
66710;DHT22;53624;0.000;0.000;2023-06-14T10:27:53;25.40;98.20
66710;DHT22;53624;0.000;0.000;2023-06-14T10:30:29;25.70;98.80
66710;DHT22;53624;0.000;0.000;2023-06-14T10:33:04;25.70;98.00
66710;DHT22;53624;0.000;0.000;2023-06-14T10:35:33;25.60;98.00
66710;DHT22;53624;0.000;0.000;2023-06-14T10:38:07;25.70;99.10
66710;DHT22;53624;0.000;0.000;2023-06-14T10:40:34;25.80;99.90
66710;DHT22;53624;0.000;0.000;2023-06-14T10:48:32;26.10;98.00
66710;DHT22;53624;0.000;0.000;2023-06-14T10:51:00;26.10;99.90
66710;DHT22;53624;0.000;0.000;2023-06-14T10:53:28;25.80;98.20
66710;DHT22;53624;0.000;0.000;2023-06-14T10:55:56;25.70;97.60
66710;DHT22;53624;0.000;0.000;2023-06-14T10:58:23;25.50;99.20
66710;DHT22;53624;0.000;0.000;2023-06-14T11:00:51;25.50;99.20
66710;DHT22;53624;0.000;0.000;2023-06-14T11:03:27;25.90;96.80
66710;DHT22;53624;0.000;0.000;2023-06-14T11:05:59;26.20;92.50
66710;DHT22;53624;0.000;0.000;2023-06-14T11:08:27;26.50;92.80
66710;DHT22;53624;0.000;0.000;2023-06-14T11:11:00;26.70;94.90
66710;DHT22;53624;0.000;0.000;2023-06-14T11:13:32;26.80;91.30
66710;DHT22;53624;0.000;0.000;2023-06-14T11:16:00;27.00;89.30
66710;DHT22;53624;0.000;0.000;2023-06-14T11:18:28;27.00;86.10
66710;DHT22;53624;0.000;0.000;2023-06-14T11:20:55;27.00;86.60
66710;DHT22;53624;0.000;0.000;2023-06-14T11:23:24;27.10;87.20
66710;DHT22;53624;0.000;0.000;2023-06-14T11:25:52;27.30;89.40
66710;DHT22;53624;0.000;0.000;2023-06-14T11:28:19;27.20;85.40
66710;DHT22;53624;0.000;0.000;2023-06-14T11:30:47;27.20;87.10
66710;DHT22;53624;0.000;0.000;2023-06-14T11:33:18;27.20;86.10
66710;DHT22;53624;0.000;0.000;2023-06-14T11:35:45;27.40;88.00
66710;DHT22;53624;0.000;0.000;2023-06-14T11:38:13;27.40;82.70
66710;DHT22;53624;0.000;0.000;2023-06-14T11:40:42;27.50;84.50
66710;DHT22;53624;0.000;0.000;2023-06-14T11:43:09;27.30;78.90
66710;DHT22;53624;0.000;0.000;2023-06-14T11:45:38;27.20;76.50
66710;DHT22;53624;0.000;0.000;2023-06-14T11:48:06;27.30;78.80
66710;DHT22;53624;0.000;0.000;2023-06-14T11:50:33;27.40;81.50
66710;DHT22;53624;0.000;0.000;2023-06-14T11:53:05;27.60;80.00
66710;DHT22;53624;0.000;0.000;2023-06-14T11:55:35;27.60;80.70
66710;DHT22;53624;0.000;0.000;2023-06-14T11:58:04;27.70;81.10
66710;DHT22;53624;0.000;0.000;2023-06-14T12:00:32;27.70;80.00
66710;DHT22;53624;0.000;0.000;2023-06-14T12:02:59;27.80;84.20
66710;DHT22;53624;0.000;0.000;2023-06-14T12:05:27;27.90;79.80
66710;DHT22;53624;0.000;0.000;2023-06-14T12:07:58;27.60;76.70
66710;DHT22;53624;0.000;0.000;2023-06-14T12:10:26;27.60;75.80
66710;DHT22;53624;0.000;0.000;2023-06-14T12:12:56;27.70;78.30
66710;DHT22;53624;0.000;0.000;2023-06-14T12:15:27;27.70;78.70
66710;DHT22;53624;0.000;0.000;2023-06-14T12:17:55;27.80;78.60
66710;DHT22;53624;0.000;0.000;2023-06-14T12:20:22;27.80;78.40
66710;DHT22;53624;0.000;0.000;2023-06-14T12:22:51;27.90;77.20
66710;DHT22;53624;0.000;0.000;2023-06-14T12:25:28;28.00;80.40
66710;DHT22;53624;0.000;0.000;2023-06-14T12:27:57;28.00;79.80
66710;DHT22;53624;0.000;0.000;2023-06-14T12:30:26;28.20;86.20
66710;DHT22;53624;0.000;0.000;2023-06-14T12:32:53;28.10;81.30
66710;DHT22;53624;0.000;0.000;2023-06-14T12:35:21;28.20;83.20
66710;DHT22;53624;0.000;0.000;2023-06-14T12:37:48;27.90;81.80
66710;DHT22;53624;0.000;0.000;2023-06-14T12:40:16;27.80;83.50
66710;DHT22;53624;0.000;0.000;2023-06-14T12:42:44;28.00;87.10
66710;DHT22;53624;0.000;0.000;2023-06-14T12:45:13;27.80;86.50
66710;DHT22;53624;0.000;0.000;2023-06-14T12:47:42;27.80;83.70
66710;DHT22;53624;0.000;0.000;2023-06-14T12:50:09;28.10;84.70
66710;DHT22;53624;0.000;0.000;2023-06-14T12:52:37;28.20;85.00
66710;DHT22;53624;0.000;0.000;2023-06-14T12:55:05;28.20;85.40
66710;DHT22;53624;0.000;0.000;2023-06-14T12:57:32;28.20;89.00
66710;DHT22;53624;0.000;0.000;2023-06-14T13:00:02;28.00;88.20
66710;DHT22;53624;0.000;0.000;2023-06-14T13:02:31;28.00;89.10
66710;DHT22;53624;0.000;0.000;2023-06-14T13:05:00;27.90;89.20
66710;DHT22;53624;0.000;0.000;2023-06-14T13:07:29;27.80;89.70
66710;DHT22;53624;0.000;0.000;2023-06-14T13:09:57;27.70;90.30
66710;DHT22;53624;0.000;0.000;2023-06-14T13:12:24;27.70;89.10
66710;DHT22;53624;0.000;0.000;2023-06-14T13:14:52;27.90;88.60
66710;DHT22;53624;0.000;0.000;2023-06-14T13:17:19;28.00;88.60
66710;DHT22;53624;0.000;0.000;2023-06-14T13:19:47;28.20;87.80
66710;DHT22;53624;0.000;0.000;2023-06-14T13:22:15;28.30;86.80
66710;DHT22;53624;0.000;0.000;2023-06-14T13:24:43;28.50;86.60
66710;DHT22;53624;0.000;0.000;2023-06-14T13:27:10;28.50;88.20
66710;DHT22;53624;0.000;0.000;2023-06-14T13:29:40;28.40;89.30
66710;DHT22;53624;0.000;0.000;2023-06-14T13:32:07;28.20;83.90
66710;DHT22;53624;0.000;0.000;2023-06-14T13:34:35;28.00;85.40
66710;DHT22;53624;0.000;0.000;2023-06-14T13:37:02;27.90;87.10
66710;DHT22;53624;0.000;0.000;2023-06-14T13:39:32;27.90;83.50
66710;DHT22;53624;0.000;0.000;2023-06-14T13:41:59;28.00;88.30
66710;DHT22;53624;0.000;0.000;2023-06-14T13:44:27;28.00;89.90
66710;DHT22;53624;0.000;0.000;2023-06-14T13:46:54;28.20;88.00
66710;DHT22;53624;0.000;0.000;2023-06-14T13:49:22;28.40;88.70
66710;DHT22;53624;0.000;0.000;2023-06-14T13:51:50;28.50;86.90
66710;DHT22;53624;0.000;0.000;2023-06-14T13:54:19;28.40;84.80
66710;DHT22;53624;0.000;0.000;2023-06-14T13:56:48;28.40;85.80
66710;DHT22;53624;0.000;0.000;2023-06-14T13:59:16;28.40;84.90
66710;DHT22;53624;0.000;0.000;2023-06-14T14:01:44;28.50;83.00
66710;DHT22;53624;0.000;0.000;2023-06-14T14:04:11;28.20;81.20
66710;DHT22;53624;0.000;0.000;2023-06-14T14:06:39;28.30;82.40
66710;DHT22;53624;0.000;0.000;2023-06-14T14:09:06;28.40;83.90
66710;DHT22;53624;0.000;0.000;2023-06-14T14:11:34;28.30;82.00
66710;DHT22;53624;0.000;0.000;2023-06-14T14:14:03;28.20;81.70
66710;DHT22;53624;0.000;0.000;2023-06-14T14:16:31;28.20;82.40
66710;DHT22;53624;0.000;0.000;2023-06-14T14:18:58;28.20;81.70
66710;DHT22;53624;0.000;0.000;2023-06-14T14:21:26;28.10;79.50
66710;DHT22;53624;0.000;0.000;2023-06-14T14:23:53;28.20;79.90
66710;DHT22;53624;0.000;0.000;2023-06-14T14:26:21;28.10;79.90
66710;DHT22;53624;0.000;0.000;2023-06-14T14:28:49;27.90;76.50
66710;DHT22;53624;0.000;0.000;2023-06-14T14:31:18;27.80;79.30
66710;DHT22;53624;0.000;0.000;2023-06-14T14:33:46;28.00;79.60
66710;DHT22;53624;0.000;0.000;2023-06-14T14:36:13;28.00;78.50
66710;DHT22;53624;0.000;0.000;2023-06-14T14:38:41;27.90;78.70
66710;DHT22;53624;0.000;0.000;2023-06-14T14:41:08;27.90;78.70
66710;DHT22;53624;0.000;0.000;2023-06-14T14:43:36;28.00;78.40
66710;DHT22;53624;0.000;0.000;2023-06-14T14:46:03;27.90;77.10
66710;DHT22;53624;0.000;0.000;2023-06-14T14:48:32;27.80;78.10
66710;DHT22;53624;0.000;0.000;2023-06-14T14:50:59;27.80;82.80
66710;DHT22;53624;0.000;0.000;2023-06-14T14:53:28;27.90;79.60
66710;DHT22;53624;0.000;0.000;2023-06-14T14:55:55;27.70;76.20
66710;DHT22;53624;0.000;0.000;2023-06-14T14:58:22;27.60;77.20
66710;DHT22;53624;0.000;0.000;2023-06-14T15:00:50;27.70;78.40
66710;DHT22;53624;0.000;0.000;2023-06-14T15:03:17;27.70;78.20
66710;DHT22;53624;0.000;0.000;2023-06-14T15:05:46;27.60;78.40
66710;DHT22;53624;0.000;0.000;2023-06-14T15:08:14;27.50;75.70
66710;DHT22;53624;0.000;0.000;2023-06-14T15:10:41;27.60;78.40
66710;DHT22;53624;0.000;0.000;2023-06-14T15:13:09;27.60;77.80
66710;DHT22;53624;0.000;0.000;2023-06-14T15:15:36;27.60;79.50
66710;DHT22;53624;0.000;0.000;2023-06-14T15:18:04;27.40;81.10
66710;DHT22;53624;0.000;0.000;2023-06-14T15:20:32;27.50;79.80
66710;DHT22;53624;0.000;0.000;2023-06-14T15:23:01;27.30;79.10
66710;DHT22;53624;0.000;0.000;2023-06-14T15:25:28;27.30;76.10
66710;DHT22;53624;0.000;0.000;2023-06-14T15:27:57;27.30;76.20
66710;DHT22;53624;0.000;0.000;2023-06-14T15:30:25;27.20;77.80
66710;DHT22;53624;0.000;0.000;2023-06-14T15:32:53;27.30;78.50
66710;DHT22;53624;0.000;0.000;2023-06-14T15:35:20;27.20;79.30
66710;DHT22;53624;0.000;0.000;2023-06-14T15:37:48;27.10;78.50
66710;DHT22;53624;0.000;0.000;2023-06-14T15:40:18;27.10;77.80
66710;DHT22;53624;0.000;0.000;2023-06-14T15:42:46;27.20;79.00
66710;DHT22;53624;0.000;0.000;2023-06-14T15:45:14;27.20;80.20
66710;DHT22;53624;0.000;0.000;2023-06-14T15:47:41;26.90;73.20
66710;DHT22;53624;0.000;0.000;2023-06-14T15:50:09;26.90;72.80
66710;DHT22;53624;0.000;0.000;2023-06-14T15:52:37;27.00;70.20
66710;DHT22;53624;0.000;0.000;2023-06-14T15:55:05;26.80;69.60
66710;DHT22;53624;0.000;0.000;2023-06-14T15:57:34;26.80;67.30